createdAt,value
2018-08-25T00:01:49.708Z,3.93
2018-08-25T00:04:16.043Z,3.80
2018-08-25T00:06:42.495Z,3.50
2018-08-25T00:09:08.830Z,4.10
2018-08-25T00:11:35.155Z,3.90
2018-08-25T00:14:01.502Z,3.63
2018-08-25T00:16:27.920Z,4.43
2018-08-25T00:18:54.252Z,4.30
2018-08-25T00:21:20.594Z,3.60
2018-08-25T00:23:46.960Z,3.93
2018-08-25T00:26:13.304Z,3.90
2018-08-25T00:28:39.635Z,4.80
2018-08-25T00:31:06.011Z,4.07
2018-08-25T00:33:32.335Z,4.23
2018-08-25T00:35:58.654Z,3.70
2018-08-25T00:38:25.001Z,4.00
2018-08-25T00:40:51.467Z,3.93
2018-08-25T00:43:17.868Z,3.57
2018-08-25T00:45:44.248Z,3.73
2018-08-25T00:48:10.679Z,4.20
2018-08-25T00:50:37.036Z,3.87
2018-08-25T00:53:03.364Z,3.70
2018-08-25T00:55:29.723Z,3.87
2018-08-25T00:57:56.051Z,3.53
2018-08-25T01:00:22.383Z,3.90
2018-08-25T01:02:48.715Z,3.70
2018-08-25T01:05:15.047Z,4.50
2018-08-25T01:07:41.407Z,4.00
2018-08-25T01:10:07.738Z,4.30
2018-08-25T01:12:34.171Z,3.90
2018-08-25T01:15:00.519Z,3.60
2018-08-25T01:17:26.936Z,4.00
2018-08-25T01:19:53.331Z,4.23
2018-08-25T01:22:19.657Z,3.80
2018-08-25T01:24:46.024Z,4.13
2018-08-25T01:27:12.457Z,3.50
2018-08-25T01:29:38.796Z,3.30
2018-08-25T01:32:05.119Z,4.40
2018-08-25T01:34:31.450Z,3.90
2018-08-25T01:36:57.823Z,3.50
2018-08-25T01:39:24.189Z,4.27
2018-08-25T01:41:50.553Z,4.00
2018-08-25T01:44:16.882Z,3.70
2018-08-25T01:46:43.278Z,3.70
2018-08-25T01:49:09.648Z,4.47
2018-08-25T01:51:35.981Z,3.90
2018-08-25T01:54:02.418Z,4.17
2018-08-25T01:56:28.756Z,4.17
2018-08-25T01:58:55.169Z,4.47
2018-08-25T02:01:21.592Z,4.83
2018-08-25T02:03:47.962Z,3.60
2018-08-25T02:06:14.340Z,3.73
2018-08-25T02:08:40.697Z,3.53
2018-08-25T02:11:07.131Z,4.00
2018-08-25T02:13:33.457Z,4.10
2018-08-25T02:15:59.809Z,4.37
2018-08-25T02:18:26.213Z,4.33
2018-08-25T02:20:52.556Z,4.10
2018-08-25T02:23:18.898Z,3.73
2018-08-25T02:25:45.377Z,4.30
2018-08-25T02:28:11.790Z,4.60
2018-08-25T02:30:38.102Z,4.20
2018-08-25T02:33:04.425Z,5.00
2018-08-25T02:35:30.742Z,4.30
2018-08-25T02:37:57.110Z,3.90
2018-08-25T02:40:23.454Z,4.57
2018-08-25T02:42:49.795Z,4.57
2018-08-25T02:45:16.155Z,3.73
2018-08-25T02:47:42.536Z,3.90
2018-08-25T02:50:08.859Z,4.13
2018-08-25T02:52:35.188Z,4.30
2018-08-25T02:55:01.534Z,3.83
2018-08-25T02:57:27.873Z,4.20
2018-08-25T02:59:54.203Z,3.90
2018-08-25T03:02:20.530Z,4.20
2018-08-25T03:04:46.930Z,4.13
2018-08-25T03:07:13.256Z,5.00
2018-08-25T03:09:39.583Z,3.80
2018-08-25T03:12:05.913Z,4.20
2018-08-25T03:14:32.256Z,4.10
2018-08-25T03:16:58.615Z,4.03
2018-08-25T03:19:24.948Z,3.80
2018-08-25T03:21:51.314Z,4.80
2018-08-25T03:24:17.645Z,4.10
2018-08-25T03:26:44.032Z,4.37
2018-08-25T03:29:10.410Z,4.40
2018-08-25T03:31:36.745Z,3.93
2018-08-25T03:34:03.168Z,4.20
2018-08-25T03:36:29.497Z,4.57
2018-08-25T03:38:55.827Z,4.77
2018-08-25T03:41:22.153Z,4.57
2018-08-25T03:43:48.536Z,4.97
2018-08-25T03:46:14.861Z,4.73
2018-08-25T03:48:41.193Z,5.30
2018-08-25T03:51:07.552Z,4.20
2018-08-25T03:53:33.878Z,4.10
2018-08-25T03:56:00.207Z,4.40
2018-08-25T03:58:26.610Z,4.60
2018-08-25T04:00:52.942Z,4.50
2018-08-25T04:03:19.292Z,4.30
2018-08-25T04:05:45.643Z,4.67
2018-08-25T04:08:12.031Z,4.30
2018-08-25T04:10:38.400Z,4.20
2018-08-25T04:13:04.738Z,4.50
2018-08-25T04:15:31.055Z,4.47
2018-08-25T04:17:57.454Z,4.37
2018-08-25T04:20:23.768Z,4.63
2018-08-25T04:22:50.092Z,4.93
2018-08-25T04:25:16.449Z,4.20
2018-08-25T04:27:42.821Z,4.63
2018-08-25T04:30:09.154Z,4.90
2018-08-25T04:32:35.482Z,4.20
2018-08-25T04:35:01.822Z,4.20
2018-08-25T04:37:28.138Z,4.60
2018-08-25T04:39:54.458Z,4.43
2018-08-25T04:42:20.796Z,4.53
2018-08-25T04:44:47.127Z,4.67
2018-08-25T04:47:13.493Z,4.53
2018-08-25T04:49:39.829Z,4.40
2018-08-25T04:52:06.155Z,4.60
2018-08-25T04:54:32.487Z,4.97
2018-08-25T04:56:58.825Z,4.60
2018-08-25T04:59:25.161Z,4.33
2018-08-25T05:01:51.573Z,3.93
2018-08-25T05:04:17.900Z,4.60
2018-08-25T05:06:44.228Z,4.80
2018-08-25T05:09:10.547Z,4.00
2018-08-25T05:11:36.868Z,4.53
2018-08-25T05:14:03.200Z,4.00
2018-08-25T05:16:29.528Z,4.40
2018-08-25T05:18:55.864Z,4.40
2018-08-25T05:21:22.198Z,4.13
2018-08-25T05:23:48.549Z,4.60
2018-08-25T05:26:14.895Z,4.73
2018-08-25T05:28:41.250Z,5.00
2018-08-25T05:31:07.616Z,4.70
2018-08-25T05:33:33.987Z,3.90
2018-08-25T05:36:00.343Z,4.10
2018-08-25T05:38:26.676Z,4.40
2018-08-25T05:40:53.036Z,4.30
2018-08-25T05:43:19.503Z,4.63
2018-08-25T05:45:45.859Z,4.13
2018-08-25T05:48:12.234Z,4.07
2018-08-25T05:50:38.564Z,4.47
2018-08-25T05:53:04.899Z,4.30
2018-08-25T05:55:31.268Z,4.53
2018-08-25T05:57:57.608Z,4.00
2018-08-25T06:00:23.948Z,4.80
2018-08-25T06:02:50.287Z,5.17
2018-08-25T06:05:16.608Z,4.70
2018-08-25T06:07:42.941Z,4.60
2018-08-25T06:10:09.350Z,4.40
2018-08-25T06:12:35.705Z,4.20
2018-08-25T06:15:02.143Z,5.23
2018-08-25T06:17:28.482Z,4.50
2018-08-25T06:19:54.814Z,4.90
2018-08-25T06:22:21.193Z,4.63
2018-08-25T06:24:47.595Z,4.53
2018-08-25T06:27:13.939Z,4.87
2018-08-25T06:29:40.327Z,4.20
2018-08-25T06:32:06.673Z,4.63
2018-08-25T06:34:33.048Z,4.60
2018-08-25T06:36:59.394Z,4.70
2018-08-25T06:39:25.730Z,4.27
2018-08-25T06:41:52.137Z,4.70
2018-08-25T06:44:18.477Z,4.63
2018-08-25T06:46:44.845Z,4.80
2018-08-25T06:49:11.176Z,4.37
2018-08-25T06:51:37.516Z,4.70
2018-08-25T06:56:36.501Z,4.70
2018-08-25T06:59:02.847Z,4.37
2018-08-25T07:01:29.192Z,4.30
2018-08-25T07:03:55.677Z,4.50
2018-08-25T07:06:22.046Z,5.10
2018-08-25T07:08:48.394Z,4.50
2018-08-25T07:11:14.723Z,4.77
2018-08-25T07:13:41.128Z,5.43
2018-08-25T07:16:07.492Z,5.23
2018-08-25T07:18:33.855Z,4.80
2018-08-25T07:21:00.182Z,4.87
2018-08-25T07:23:26.506Z,4.70
2018-08-25T07:25:52.893Z,4.80
2018-08-25T07:28:19.230Z,4.53
2018-08-25T07:30:45.625Z,5.07
2018-08-25T07:33:11.954Z,5.30
2018-08-25T07:35:38.285Z,4.93
2018-08-25T07:38:04.642Z,4.87
2018-08-25T07:40:30.993Z,4.87
2018-08-25T07:42:57.325Z,5.40
2018-08-25T07:45:23.747Z,5.30
2018-08-25T07:47:50.011Z,4.97
2018-08-25T07:50:16.314Z,5.40
2018-08-25T07:52:42.658Z,5.03
2018-08-25T07:55:09.001Z,5.50
2018-08-25T07:57:35.378Z,5.30
2018-08-25T08:00:01.711Z,5.03
2018-08-25T08:02:28.073Z,5.37
2018-08-25T08:04:54.456Z,5.80
2018-08-25T08:07:20.787Z,5.57
2018-08-25T08:09:47.168Z,5.40
2018-08-25T08:12:13.524Z,4.90
2018-08-25T08:14:39.853Z,5.37
2018-08-25T08:17:06.215Z,5.37
2018-08-25T08:19:32.557Z,5.17
2018-08-25T08:21:58.920Z,5.33
2018-08-25T08:24:25.260Z,5.27
2018-08-25T08:26:51.620Z,5.33
2018-08-25T08:29:17.954Z,5.60
2018-08-25T08:31:44.334Z,5.20
2018-08-25T08:34:10.690Z,5.70
2018-08-25T08:36:37.049Z,5.50
2018-08-25T08:39:03.391Z,5.70
2018-08-25T08:41:29.772Z,5.90
2018-08-25T08:43:56.167Z,5.70
2018-08-25T08:46:22.479Z,6.20
2018-08-25T08:48:48.816Z,5.90
2018-08-25T08:51:15.140Z,6.43
2018-08-25T08:53:41.480Z,6.20
2018-08-25T08:56:07.819Z,5.40
2018-08-25T08:58:34.164Z,6.23
2018-08-25T09:01:00.532Z,5.33
2018-08-25T09:03:27.041Z,5.63
2018-08-25T09:05:53.338Z,6.30
2018-08-25T09:08:19.725Z,5.50
2018-08-25T09:10:46.054Z,5.87
2018-08-25T09:13:12.426Z,5.97
2018-08-25T09:15:38.786Z,5.80
2018-08-25T09:18:05.132Z,5.73
2018-08-25T09:20:31.587Z,5.80
2018-08-25T09:22:57.944Z,5.57
2018-08-25T09:25:24.281Z,5.70
2018-08-25T09:27:50.614Z,6.30
2018-08-25T09:30:17.281Z,5.70
2018-08-25T09:32:43.648Z,6.00
2018-08-25T09:35:10.045Z,5.73
2018-08-25T09:37:36.387Z,6.13
2018-08-25T09:40:02.766Z,5.67
2018-08-25T09:42:29.099Z,6.40
2018-08-25T09:44:55.471Z,6.00
2018-08-25T09:47:21.857Z,6.80
2018-08-25T09:49:48.191Z,6.37
2018-08-25T09:52:14.599Z,6.20
2018-08-25T09:54:40.995Z,5.90
2018-08-25T09:57:07.327Z,6.63
2018-08-25T09:59:33.688Z,6.13
2018-08-25T10:02:00.052Z,6.23
2018-08-25T10:04:26.388Z,6.53
2018-08-25T10:06:52.868Z,5.93
2018-08-25T10:09:19.236Z,6.30
2018-08-25T10:11:45.575Z,6.50
2018-08-25T10:14:11.949Z,6.63
2018-08-25T10:16:38.366Z,6.20
2018-08-25T10:19:04.720Z,6.20
2018-08-25T10:21:31.055Z,6.13
2018-08-25T10:23:57.411Z,6.33
2018-08-25T10:26:23.814Z,6.60
2018-08-25T10:28:50.169Z,6.33
2018-08-25T10:31:16.505Z,6.27
2018-08-25T10:33:42.859Z,6.10
2018-08-25T10:36:09.185Z,6.10
2018-08-25T10:38:35.565Z,6.20
2018-08-25T10:41:01.912Z,6.33
2018-08-25T10:43:28.287Z,6.03
2018-08-25T10:45:54.705Z,6.43
2018-08-25T10:48:21.070Z,6.00
2018-08-25T10:50:47.443Z,6.57
2018-08-25T10:53:13.764Z,6.37
2018-08-25T10:55:40.136Z,6.53
2018-08-25T10:58:06.486Z,6.33
2018-08-25T11:00:32.874Z,6.63
2018-08-25T11:02:59.235Z,6.77
2018-08-25T11:05:25.629Z,6.23
2018-08-25T11:07:51.972Z,6.20
2018-08-25T11:10:18.413Z,6.50
2018-08-25T11:12:44.804Z,5.87
2018-08-25T11:15:11.139Z,6.60
2018-08-25T11:17:37.519Z,6.17
2018-08-25T11:20:03.886Z,6.53
2018-08-25T11:22:30.222Z,6.27
2018-08-25T11:24:56.611Z,6.77
2018-08-25T11:27:22.946Z,6.47
2018-08-25T11:29:49.341Z,6.67
2018-08-25T11:32:15.704Z,6.50
2018-08-25T11:34:42.089Z,6.63
2018-08-25T11:37:08.482Z,6.63
2018-08-25T11:39:34.798Z,6.40
2018-08-25T11:42:01.125Z,6.33
2018-08-25T11:44:27.531Z,6.53
2018-08-25T11:46:53.881Z,5.97
2018-08-25T11:49:20.431Z,7.20
2018-08-25T11:51:46.792Z,6.87
2018-08-25T11:54:13.167Z,6.07
2018-08-25T11:56:39.549Z,6.23
2018-08-25T11:59:05.887Z,6.33
2018-08-25T12:01:32.384Z,6.63
2018-08-25T12:03:58.791Z,6.60
2018-08-25T12:06:25.159Z,7.13
2018-08-25T12:08:51.482Z,6.80
2018-08-25T12:11:17.858Z,7.00
2018-08-25T12:13:44.169Z,7.47
2018-08-25T12:16:10.588Z,7.37
2018-08-25T12:18:36.914Z,6.97
2018-08-25T12:21:03.278Z,7.13
2018-08-25T12:23:29.676Z,7.30
2018-08-25T12:25:56.106Z,6.70
2018-08-25T12:28:22.591Z,7.33
2018-08-25T12:30:48.989Z,6.87
2018-08-25T12:33:15.368Z,7.00
2018-08-25T12:35:41.838Z,6.00
2018-08-25T12:38:08.193Z,7.40
2018-08-25T12:40:34.603Z,6.80
2018-08-25T12:43:00.994Z,6.63
2018-08-25T12:45:27.331Z,6.33
2018-08-25T12:47:53.788Z,7.10
2018-08-25T12:50:20.181Z,6.73
2018-08-25T12:52:46.552Z,6.50
2018-08-25T12:55:13.016Z,6.20
2018-08-25T12:57:39.416Z,6.40
2018-08-25T13:00:05.779Z,6.80
2018-08-25T13:02:32.194Z,6.27
2018-08-25T13:04:58.516Z,6.90
2018-08-25T13:07:24.938Z,7.03
2018-08-25T13:09:51.223Z,7.13
2018-08-25T13:12:17.592Z,7.10
2018-08-25T13:14:44.071Z,6.70
2018-08-25T13:17:10.412Z,6.70
2018-08-25T13:19:36.748Z,6.77
2018-08-25T13:22:03.334Z,7.30
2018-08-25T13:24:29.614Z,6.33
2018-08-25T13:26:55.964Z,6.80
2018-08-25T13:29:22.342Z,6.80
2018-08-25T13:31:48.674Z,6.77
2018-08-25T13:34:15.168Z,7.13
2018-08-25T13:36:41.572Z,6.43
2018-08-25T13:39:07.987Z,7.13
2018-08-25T13:41:34.360Z,6.80
2018-08-25T13:44:00.746Z,6.17
2018-08-25T13:46:27.280Z,6.93
2018-08-25T13:48:53.631Z,6.37
2018-08-25T13:51:19.979Z,6.97
2018-08-25T13:53:46.363Z,6.93
2018-08-25T13:56:12.692Z,7.10
2018-08-25T13:58:39.084Z,6.57
2018-08-25T14:01:05.425Z,6.57
2018-08-25T14:03:31.789Z,6.30
2018-08-25T14:05:58.128Z,6.63
2018-08-25T14:08:24.665Z,7.03
2018-08-25T14:10:50.906Z,6.37
2018-08-25T14:13:17.287Z,6.40
2018-08-25T14:15:43.617Z,6.93
2018-08-25T14:18:09.975Z,6.40
2018-08-25T14:20:36.306Z,6.73
2018-08-25T14:23:02.667Z,6.60
2018-08-25T14:25:29.044Z,7.00
2018-08-25T14:27:55.375Z,7.07
2018-08-25T14:30:21.751Z,6.90
2018-08-25T14:32:48.082Z,6.60
2018-08-25T14:35:14.500Z,6.80
2018-08-25T14:37:40.869Z,6.33
2018-08-25T14:40:07.255Z,6.90
2018-08-25T14:42:33.625Z,6.33
2018-08-25T14:44:59.955Z,6.50
2018-08-25T14:47:26.277Z,6.40
2018-08-25T14:49:52.607Z,6.73
2018-08-25T14:52:18.949Z,7.30
2018-08-25T14:54:45.318Z,6.27
2018-08-25T14:57:12.602Z,6.83
2018-08-25T14:59:38.927Z,7.27
2018-08-25T15:02:05.300Z,7.10
2018-08-25T15:04:31.639Z,6.63
2018-08-25T15:06:57.977Z,6.30
2018-08-25T15:09:24.337Z,6.60
2018-08-25T15:11:50.721Z,6.30
2018-08-25T15:14:17.081Z,6.43
2018-08-25T15:16:43.395Z,7.03
2018-08-25T15:19:09.773Z,7.27
2018-08-25T15:21:36.115Z,7.10
2018-08-25T15:24:02.593Z,6.90
2018-08-25T15:26:29.086Z,6.93
2018-08-25T15:28:55.616Z,6.83
2018-08-25T15:31:21.940Z,7.20
2018-08-25T15:33:48.367Z,7.40
2018-08-25T15:36:14.708Z,7.33
2018-08-25T15:38:41.047Z,6.83
2018-08-25T15:41:07.425Z,7.43
2018-08-25T15:43:33.807Z,6.80
2018-08-25T15:46:00.175Z,7.27
2018-08-25T15:48:26.554Z,6.80
2018-08-25T15:50:52.922Z,6.90
2018-08-25T15:53:19.298Z,7.00
2018-08-25T15:55:45.663Z,6.90
2018-08-25T15:58:12.054Z,6.93
2018-08-25T16:00:38.401Z,7.57
2018-08-25T16:03:04.787Z,6.90
2018-08-25T16:05:31.119Z,6.60
2018-08-25T16:07:57.456Z,6.90
2018-08-25T16:10:23.787Z,6.80
2018-08-25T16:12:50.275Z,7.37
2018-08-25T16:15:16.680Z,7.90
2018-08-25T16:17:43.020Z,7.10
2018-08-25T16:20:09.429Z,6.50
2018-08-25T16:22:35.682Z,7.50
2018-08-25T16:25:02.049Z,6.80
2018-08-25T16:27:28.452Z,7.13
2018-08-25T16:29:54.781Z,7.43
2018-08-25T16:32:21.155Z,6.90
2018-08-25T16:34:47.546Z,6.53
2018-08-25T16:37:13.919Z,7.50
2018-08-25T16:39:40.272Z,6.50
2018-08-25T16:42:06.695Z,6.90
2018-08-25T16:44:33.037Z,6.97
2018-08-25T16:46:59.370Z,6.77
2018-08-25T16:49:25.753Z,7.10
2018-08-25T16:51:52.100Z,6.60
2018-08-25T16:54:18.459Z,6.47
2018-08-25T16:56:44.918Z,6.80
2018-08-25T16:59:11.291Z,7.10
2018-08-25T17:01:37.621Z,6.80
2018-08-25T17:04:04.000Z,7.13
2018-08-25T17:06:30.327Z,7.30
2018-08-25T17:08:56.701Z,7.13
2018-08-25T17:11:23.121Z,6.90
2018-08-25T17:13:49.504Z,7.10
2018-08-25T17:16:15.877Z,7.00
2018-08-25T17:18:42.212Z,6.80
2018-08-25T17:21:08.630Z,7.30
2018-08-25T17:23:34.911Z,6.90
2018-08-25T17:26:01.241Z,7.60
2018-08-25T17:28:27.636Z,6.00
2018-08-25T17:30:53.973Z,7.10
2018-08-25T17:33:20.353Z,6.63
2018-08-25T17:35:46.719Z,7.13
2018-08-25T17:38:13.100Z,7.00
2018-08-25T17:40:39.427Z,7.03
2018-08-25T17:43:05.801Z,6.50
2018-08-25T17:45:32.125Z,7.00
2018-08-25T17:47:58.543Z,7.00
2018-08-25T17:50:24.891Z,6.33
2018-08-25T17:52:51.293Z,7.60
2018-08-25T17:55:17.611Z,6.50
2018-08-25T17:57:44.125Z,6.80
2018-08-25T18:00:10.310Z,7.03
2018-08-25T18:02:36.648Z,7.37
2018-08-25T18:05:02.978Z,7.00
2018-08-25T18:07:29.404Z,7.57
2018-08-25T18:09:55.736Z,6.83
2018-08-25T18:12:22.057Z,6.90
2018-08-25T18:14:48.374Z,6.77
2018-08-25T18:17:14.718Z,5.97
2018-08-25T18:19:41.047Z,6.50
2018-08-25T18:22:07.408Z,6.57
2018-08-25T18:24:33.744Z,7.20
2018-08-25T18:27:00.074Z,7.00
2018-08-25T18:29:26.436Z,6.43
2018-08-25T18:31:52.836Z,7.10
2018-08-25T18:34:19.180Z,6.90
2018-08-25T18:36:45.578Z,6.87
2018-08-25T18:39:11.911Z,6.60
2018-08-25T18:41:38.365Z,6.80
2018-08-25T18:44:04.729Z,6.90
2018-08-25T18:46:31.067Z,6.43
2018-08-25T18:48:57.477Z,6.30
2018-08-25T18:51:23.847Z,6.50
2018-08-25T18:53:50.242Z,7.27
2018-08-25T18:56:16.592Z,7.20
2018-08-25T18:58:42.927Z,7.37
2018-08-25T19:01:09.278Z,7.47
2018-08-25T19:03:35.614Z,6.60
2018-08-25T19:06:01.977Z,7.07
2018-08-25T19:08:28.333Z,6.50
2018-08-25T19:10:54.822Z,6.03
2018-08-25T19:13:21.129Z,6.00
2018-08-25T19:15:47.505Z,6.90
2018-08-25T19:18:13.861Z,7.00
2018-08-25T19:20:40.251Z,6.63
2018-08-25T19:23:06.574Z,6.50
2018-08-25T19:25:32.879Z,6.03
2018-08-25T19:27:59.212Z,6.73
2018-08-25T19:30:25.589Z,6.57
2018-08-25T19:32:52.002Z,7.10
2018-08-25T19:35:18.338Z,7.20
2018-08-25T19:37:44.703Z,6.87
2018-08-25T19:40:11.039Z,6.10
2018-08-25T19:42:37.363Z,6.97
2018-08-25T19:45:03.699Z,6.43
2018-08-25T19:47:30.034Z,5.83
2018-08-25T19:49:56.358Z,6.97
2018-08-25T19:52:22.696Z,7.03
2018-08-25T19:54:49.024Z,6.67
2018-08-25T19:57:15.348Z,6.73
2018-08-25T19:59:41.680Z,6.80
2018-08-25T20:02:08.011Z,6.87
2018-08-25T20:04:34.372Z,6.60
2018-08-25T20:07:00.711Z,6.40
2018-08-25T20:09:27.087Z,6.40
2018-08-25T20:11:53.403Z,6.33
2018-08-25T20:14:19.721Z,6.57
2018-08-25T20:16:46.065Z,6.23
2018-08-25T20:19:12.394Z,6.57
2018-08-25T20:21:38.834Z,6.93
2018-08-25T20:24:05.223Z,6.70
2018-08-25T20:26:31.555Z,6.00
2018-08-25T20:28:57.895Z,6.10
2018-08-25T20:31:24.219Z,6.57
2018-08-25T20:33:50.552Z,6.70
2018-08-25T20:36:16.882Z,6.37
2018-08-25T20:38:43.228Z,6.67
2018-08-25T20:41:09.554Z,6.40
2018-08-25T20:43:35.973Z,7.17
2018-08-25T20:46:02.362Z,6.50
2018-08-25T20:48:28.705Z,6.70
2018-08-25T20:50:55.217Z,6.83
2018-08-25T20:53:21.681Z,6.30
2018-08-25T20:55:47.939Z,6.90
2018-08-25T20:58:14.325Z,6.40
2018-08-25T21:00:40.726Z,6.67
2018-08-25T21:03:07.065Z,6.77
2018-08-25T21:05:33.418Z,6.20
2018-08-25T21:07:59.777Z,6.73
2018-08-25T21:10:26.184Z,6.60
2018-08-25T21:12:52.544Z,6.93
2018-08-25T21:15:18.886Z,6.37
2018-08-25T21:17:45.218Z,6.70
2018-08-25T21:20:11.577Z,6.70
2018-08-25T21:22:37.913Z,6.80
2018-08-25T21:25:04.275Z,6.33
2018-08-25T21:27:30.607Z,6.57
2018-08-25T21:29:56.949Z,6.57
2018-08-25T21:32:23.269Z,6.10
2018-08-25T21:34:49.612Z,6.43
2018-08-25T21:37:15.940Z,6.17
2018-08-25T21:39:42.275Z,6.20
2018-08-25T21:42:08.660Z,6.60
2018-08-25T21:44:34.988Z,6.73
2018-08-25T21:47:01.327Z,7.00
2018-08-25T21:49:27.709Z,6.17
2018-08-25T21:51:54.138Z,6.40
2018-08-25T21:54:20.490Z,7.20
2018-08-25T21:56:46.813Z,6.73
2018-08-25T21:59:13.151Z,6.40
2018-08-25T22:01:39.520Z,6.50
2018-08-25T22:04:05.857Z,5.83
2018-08-25T22:06:32.245Z,6.00
2018-08-25T22:08:58.579Z,6.27
2018-08-25T22:11:24.912Z,6.57
2018-08-25T22:13:51.253Z,6.53
2018-08-25T22:16:17.585Z,5.97
2018-08-25T22:18:43.960Z,6.47
2018-08-25T22:21:10.436Z,6.67
2018-08-25T22:23:36.771Z,6.43
2018-08-25T22:26:03.096Z,6.70
2018-08-25T22:28:29.421Z,6.23
2018-08-25T22:30:55.745Z,6.30
2018-08-25T22:33:22.086Z,6.33
2018-08-25T22:35:48.417Z,6.90
2018-08-25T22:38:14.748Z,6.57
2018-08-25T22:40:41.082Z,6.40
2018-08-25T22:43:07.435Z,6.43
2018-08-25T22:45:33.783Z,7.40
2018-08-25T22:48:00.104Z,6.03
2018-08-25T22:50:26.443Z,6.20
2018-08-25T22:52:52.866Z,6.00
2018-08-25T22:55:19.298Z,6.40
2018-08-25T22:57:45.648Z,6.20
2018-08-25T23:00:11.999Z,6.30
2018-08-25T23:02:38.392Z,6.53
2018-08-25T23:05:04.908Z,6.90
2018-08-25T23:07:31.276Z,6.80
2018-08-25T23:09:57.640Z,7.20
2018-08-25T23:12:23.975Z,5.90
2018-08-25T23:14:50.346Z,6.53
2018-08-25T23:17:16.724Z,6.60
2018-08-25T23:19:43.049Z,6.40
2018-08-25T23:22:09.376Z,6.00
2018-08-25T23:24:35.723Z,6.80
2018-08-25T23:27:02.128Z,6.97
2018-08-25T23:29:28.520Z,6.53
2018-08-25T23:31:54.883Z,5.97
2018-08-25T23:34:21.308Z,6.97
2018-08-25T23:36:47.638Z,6.03
2018-08-25T23:39:14.017Z,6.10
2018-08-25T23:41:40.396Z,7.00
2018-08-25T23:44:06.812Z,6.80
2018-08-25T23:46:33.147Z,6.23
2018-08-25T23:48:59.512Z,6.10
2018-08-25T23:51:25.880Z,6.07
2018-08-25T23:53:52.245Z,6.60
2018-08-25T23:56:18.575Z,6.70
2018-08-25T23:58:45.007Z,5.73
